Time;durP1;ratioP1;P1;durP2;ratioP2;P2;SDS_P1;SDS_P2;PMS_P1;PMS_P2;Temp;Humidity;BMP_temperature;BMP_pressure;BME280_temperature;BME280_humidity;BME280_pressure;Samples;Min_cycle;Max_cycle;Signal;HPM_P1;HPM_P2
2022/03/09 00:00:00;;;;;;;6.53;3.00;;;;;;;-6.79;42.00;100383.78;5070064;28;20076;-67
2022/03/09 00:02:25;;;;;;;6.47;3.08;;;;;;;-7.10;42.26;100362.97;5070275;28;20031;-66
2022/03/09 00:04:51;;;;;;;5.70;2.42;;;;;;;-6.75;41.73;100384.66;5070141;28;20036;-66
2022/03/09 00:07:16;;;;;;;6.88;3.15;;;;;;;-6.97;42.50;100392.50;5051871;28;20033;-67
2022/03/09 00:09:42;;;;;;;10.23;3.38;;;;;;;-6.94;42.14;100385.53;5070431;28;20028;-65
2022/03/09 00:12:08;;;;;;;8.55;2.88;;;;;;;-7.32;42.76;100342.13;5070385;28;20472;-66
2022/03/09 00:14:33;;;;;;;8.13;2.90;;;;;;;-7.10;43.16;100384.66;5070003;28;20081;-66
2022/03/09 00:16:59;;;;;;;8.30;3.50;;;;;;;-7.09;43.74;100394.19;5069668;28;20111;-65
2022/03/09 00:19:24;;;;;;;6.07;3.35;;;;;;;-7.04;43.25;100394.22;5051649;28;20028;-66
2022/03/09 00:21:50;;;;;;;6.80;3.08;;;;;;;-7.08;43.22;100390.72;5071150;28;20033;-66
2022/03/09 00:24:18;;;;;;;6.57;2.58;;;;;;;-6.98;43.05;100408.97;5073740;28;20028;-66
2022/03/09 00:26:43;;;;;;;5.90;2.10;;;;;;;-6.69;41.94;100405.50;5073407;28;20074;-67
2022/03/09 00:29:09;;;;;;;3.13;1.52;;;;;;;-6.67;41.72;100408.97;5055378;28;20394;-66
2022/03/09 00:31:35;;;;;;;6.78;2.90;;;;;;;-6.80;41.04;100402.91;5073781;28;20245;-66
2022/03/09 00:34:00;;;;;;;9.05;3.28;;;;;;;-6.98;41.69;100411.56;5073285;28;20036;-65
2022/03/09 00:36:26;;;;;;;7.93;3.35;;;;;;;-7.36;42.25;100418.41;5073019;28;20485;-65
2022/03/09 00:38:51;;;;;;;6.07;3.17;;;;;;;-7.44;42.05;100384.63;5072899;28;20025;-67
2022/03/09 00:41:17;;;;;;;7.13;2.53;;;;;;;-7.43;42.22;100401.97;5073870;28;20124;-65
2022/03/09 00:43:43;;;;;;;7.10;3.35;;;;;;;-7.50;42.34;100392.38;5073578;28;20028;-65
2022/03/09 00:46:09;;;;;;;7.82;3.45;;;;;;;-7.99;43.42;100380.09;5038501;28;20031;-66
2022/03/09 00:48:34;;;;;;;7.97;3.10;;;;;;;-7.79;43.52;100409.63;5055009;28;20040;-67
2022/03/09 00:51:00;;;;;;;5.88;2.40;;;;;;;-7.66;42.96;100409.66;5073350;28;20032;-65
2022/03/09 00:53:25;;;;;;;8.60;3.05;;;;;;;-7.66;43.14;100404.47;5073249;28;20024;-66
2022/03/09 00:55:51;;;;;;;7.20;3.20;;;;;;;-7.75;43.52;100405.31;5072178;28;20033;-66
2022/03/09 00:58:16;;;;;;;7.32;2.90;;;;;;;-7.43;42.29;100399.34;5072626;28;20045;-57
2022/03/09 01:00:42;;;;;;;7.13;3.58;;;;;;;-7.82;43.01;100413.94;5073350;28;20021;-65
2022/03/09 01:03:08;;;;;;;6.57;3.38;;;;;;;-7.98;43.93;100418.22;5072580;28;20093;-66
2022/03/09 01:05:33;;;;;;;3.28;1.63;;;;;;;-7.96;44.02;100421.69;5072251;28;20156;-65
2022/03/09 01:07:59;;;;;;;6.05;2.85;;;;;;;-8.02;43.79;100413.88;5072651;28;20032;-66
2022/03/09 01:10:25;;;;;;;10.27;3.15;;;;;;;-8.02;43.34;100417.31;5072217;28;20020;-65
2022/03/09 01:12:50;;;;;;;6.97;3.22;;;;;;;-8.07;43.52;100429.41;5072617;28;20527;-66
2022/03/09 01:15:17;;;;;;;7.30;2.97;;;;;;;-8.28;43.40;100420.63;5072482;28;20033;-65
2022/03/09 01:17:42;;;;;;;4.55;2.20;;;;;;;-8.37;44.13;100426.63;5072310;28;20115;-66
2022/03/09 01:20:08;;;;;;;6.78;2.72;;;;;;;-8.35;44.05;100426.66;5072593;28;20115;-66
2022/03/09 01:22:34;;;;;;;5.80;2.85;;;;;;;-8.31;43.55;100430.16;5072279;28;20033;-66
2022/03/09 01:24:59;;;;;;;4.93;2.58;;;;;;;-8.45;43.49;100432.63;5072725;28;20093;-67
2022/03/09 01:27:25;;;;;;;4.28;2.42;;;;;;;-8.34;43.35;100443.09;5072792;28;20393;-66
2022/03/09 01:29:50;;;;;;;7.28;3.22;;;;;;;-8.58;43.20;100432.59;5072177;28;20079;-65
2022/03/09 01:32:16;;;;;;;7.22;2.85;;;;;;;-8.88;44.51;100443.59;5072291;28;20474;-67
2022/03/09 01:34:42;;;;;;;4.90;1.75;;;;;;;-8.78;44.31;100452.31;5072476;28;20029;-66
2022/03/09 01:37:07;;;;;;;9.10;2.83;;;;;;;-8.88;44.11;100439.28;5071981;28;20033;-66
2022/03/09 01:39:33;;;;;;;5.53;2.58;;;;;;;-9.37;44.42;100405.94;5071839;28;20090;-66
2022/03/09 01:41:58;;;;;;;7.45;2.78;;;;;;;-9.22;45.30;100449.31;5072250;28;20454;-65
2022/03/09 01:44:24;;;;;;;7.75;2.78;;;;;;;-9.33;45.66;100461.31;5054377;28;20036;-67
2022/03/09 01:46:53;;;;;;;6.43;2.30;;;;;;;-9.19;45.01;100459.72;5071684;28;20036;-61
2022/03/09 01:49:19;;;;;;;6.97;2.90;;;;;;;-9.32;45.70;100444.91;5072612;28;20386;-65
2022/03/09 01:51:47;;;;;;;6.47;3.17;;;;;;;-9.22;45.21;100457.09;5053433;28;20047;-66
2022/03/09 01:54:14;;;;;;;6.53;2.60;;;;;;;-9.40;45.66;100466.44;5053416;28;20056;-67
2022/03/09 01:56:41;;;;;;;6.50;3.08;;;;;;;-9.73;45.95;100407.28;5071524;28;20095;-66
2022/03/09 01:59:10;;;;;;;4.20;1.90;;;;;;;-9.30;45.62;100461.34;5071653;28;20075;-64
2022/03/09 02:01:36;;;;;;;5.75;3.05;;;;;;;-9.27;45.64;100461.38;5071694;28;20036;-67
2022/03/09 02:04:03;;;;;;;7.88;2.97;;;;;;;-9.39;45.87;100473.38;5071708;28;20085;-66
2022/03/09 02:06:34;;;;;;;6.55;2.72;;;;;;;-9.46;45.70;100476.72;5072221;28;20382;-66
2022/03/09 02:11:46;;;;;;;3.78;2.03;;;;;;;-9.41;45.70;100472.44;5053585;28;20495;-67
2022/03/09 02:14:31;;;;;;;6.63;3.20;;;;;;;-9.42;45.32;100464.66;5073450;28;20028;-66
2022/03/09 02:16:58;;;;;;;5.75;2.45;;;;;;;-9.52;45.74;100464.56;5075074;28;20028;-66
2022/03/09 02:19:24;;;;;;;7.20;3.13;;;;;;;-9.37;44.74;100476.84;5074477;28;20039;-65
2022/03/09 02:22:21;;;;;;;6.90;3.22;;;;;;;-9.39;45.14;100475.06;5072705;28;20032;-68
2022/03/09 02:24:48;;;;;;;5.63;2.38;;;;;;;-9.40;44.70;100468.16;5072148;28;20139;-67
2022/03/09 02:27:14;;;;;;;8.75;3.50;;;;;;;-9.66;45.40;100487.69;5071584;28;20043;-67
2022/03/09 02:29:40;;;;;;;5.28;2.88;;;;;;;-9.63;45.63;100492.06;5071208;28;20460;-67
2022/03/09 02:32:07;;;;;;;7.75;2.65;;;;;;;-9.35;44.70;100499.31;5071135;28;20113;-67
2022/03/09 02:34:33;;;;;;;6.28;2.83;;;;;;;-9.56;45.24;100498.22;5070491;28;20644;-66
2022/03/09 02:36:59;;;;;;;7.20;2.92;;;;;;;-9.82;45.53;100471.09;5071392;28;20028;-67
2022/03/09 02:39:25;;;;;;;8.60;3.00;;;;;;;-9.92;45.92;100494.25;5071193;28;20074;-67
2022/03/09 02:41:51;;;;;;;7.60;2.90;;;;;;;-9.77;45.83;100502.25;5070883;28;20033;-66
2022/03/09 02:44:16;;;;;;;9.00;3.30;;;;;;;-9.62;45.27;100505.91;5069529;28;20044;-67
2022/03/09 02:46:42;;;;;;;8.15;2.67;;;;;;;-9.77;45.58;100494.47;5053562;28;20028;-67
2022/03/09 02:49:07;;;;;;;8.15;3.17;;;;;;;-9.81;45.78;100516.03;5070500;28;20028;-67
2022/03/09 02:51:33;;;;;;;7.68;3.00;;;;;;;-10.46;45.98;100412.41;5070428;28;20373;-66
2022/03/09 02:53:59;;;;;;;6.13;3.10;;;;;;;-9.95;46.21;100519.28;5070682;28;20028;-65
2022/03/09 02:56:24;;;;;;;9.70;2.85;;;;;;;-9.91;46.06;100517.63;5070937;28;20047;-66
2022/03/09 02:58:50;;;;;;;7.82;2.95;;;;;;;-10.21;46.29;100461.06;5052681;28;20074;-64
2022/03/09 03:01:16;;;;;;;5.75;2.40;;;;;;;-9.95;46.29;100516.69;5052511;28;20101;-64
2022/03/09 03:03:43;;;;;;;7.03;2.55;;;;;;;-9.57;45.21;100514.63;5036044;28;20059;-63
2022/03/09 03:06:09;;;;;;;5.30;2.22;;;;;;;-9.66;45.50;100518.81;5070088;28;20036;-63
2022/03/09 03:08:35;;;;;;;7.78;2.85;;;;;;;-9.82;45.73;100524.66;5070499;28;20496;-64
2022/03/09 03:11:01;;;;;;;5.70;2.60;;;;;;;-10.06;46.32;100510.50;5052737;28;20086;-65
2022/03/09 03:13:28;;;;;;;7.60;3.08;;;;;;;-9.95;46.27;100521.03;5036011;28;20040;-65
2022/03/09 03:15:54;;;;;;;1.85;0.88;;;;;;;-9.87;45.85;100532.34;5070970;28;20131;-63
2022/03/09 03:18:19;;;;;;;6.20;2.97;;;;;;;-10.07;46.42;100528.59;5052575;28;20115;-64
2022/03/09 03:20:45;;;;;;;7.13;3.25;;;;;;;-10.33;46.70;100517.00;5052891;28;20039;-65
2022/03/09 03:23:11;;;;;;;6.47;2.70;;;;;;;-10.45;46.67;100465.94;5070313;28;20032;-64
2022/03/09 03:25:36;;;;;;;3.25;1.35;;;;;;;-9.96;45.69;100521.88;5035581;28;20477;-66
2022/03/09 03:28:02;;;;;;;6.82;2.90;;;;;;;-10.03;45.94;100533.84;5052416;28;20021;-66
2022/03/09 03:30:28;;;;;;;6.13;2.78;;;;;;;-10.13;45.89;100539.72;5070840;28;20477;-65
2022/03/09 03:32:53;;;;;;;8.15;2.97;;;;;;;-10.31;46.60;100546.38;5051536;28;20100;-64
2022/03/09 03:35:19;;;;;;;9.75;3.17;;;;;;;-10.25;46.27;100550.75;5069217;28;20047;-64
2022/03/09 03:37:44;;;;;;;10.20;2.35;;;;;;;-10.05;45.31;100532.97;5070311;28;20084;-64
2022/03/09 03:40:10;;;;;;;9.32;2.78;;;;;;;-10.14;45.53;100543.16;5052329;28;20410;-64
2022/03/09 03:42:35;;;;;;;9.27;2.35;;;;;;;-10.11;45.69;100538.06;5069588;28;20082;-67
2022/03/09 03:45:01;;;;;;;7.50;2.90;;;;;;;-10.29;46.06;100539.50;5070942;28;20429;-65
2022/03/09 03:47:28;;;;;;;7.13;3.30;;;;;;;-10.11;45.46;100551.88;5052466;28;20035;-65
2022/03/09 03:49:54;;;;;;;6.28;2.35;;;;;;;-10.26;45.84;100534.38;5070578;28;20385;-67
2022/03/09 03:52:19;;;;;;;8.45;2.42;;;;;;;-10.30;46.09;100553.28;5070563;28;20039;-63
2022/03/09 03:54:45;;;;;;;10.30;3.03;;;;;;;-10.18;45.65;100546.56;5052618;28;20517;-65
2022/03/09 03:57:10;;;;;;;11.15;3.47;;;;;;;-10.44;45.51;100487.50;5074001;28;20047;-67
2022/03/09 03:59:36;;;;;;;9.13;3.05;;;;;;;-10.04;45.32;100549.34;5056296;28;20428;-66
2022/03/09 04:02:02;;;;;;;7.05;3.05;;;;;;;-10.07;45.68;100545.03;5056604;28;20447;-64
2022/03/09 04:04:27;;;;;;;7.03;2.03;;;;;;;-9.93;45.12;100554.69;5038535;28;20097;-64
2022/03/09 04:06:53;;;;;;;7.13;2.95;;;;;;;-10.07;45.50;100570.03;5056317;28;20118;-65
2022/03/09 04:09:18;;;;;;;10.90;3.72;;;;;;;-10.28;46.43;100559.38;5056275;28;20111;-66
2022/03/09 04:11:44;;;;;;;4.20;1.58;;;;;;;-10.00;45.85;100564.97;5056459;28;20037;-62
2022/03/09 04:14:09;;;;;;;10.48;3.58;;;;;;;-10.07;45.41;100555.38;5039527;28;20031;-63
2022/03/09 04:16:35;;;;;;;10.27;3.72;;;;;;;-10.13;46.07;100560.44;5073485;28;20024;-65
2022/03/09 04:19:00;;;;;;;11.18;3.67;;;;;;;-10.17;46.38;100554.38;5072692;28;20033;-66
2022/03/09 04:21:26;;;;;;;6.72;2.00;;;;;;;-9.74;45.41;100566.22;5074157;28;20029;-66
2022/03/09 04:23:52;;;;;;;8.95;2.90;;;;;;;-9.63;45.10;100579.34;5038828;28;20036;-63
2022/03/09 04:26:17;;;;;;;8.57;3.03;;;;;;;-9.76;44.82;100576.56;5055013;28;20036;-63
2022/03/09 04:28:43;;;;;;;7.40;3.20;;;;;;;-9.72;45.48;100582.69;5072808;28;20060;-63
2022/03/09 04:31:08;;;;;;;7.30;3.30;;;;;;;-9.97;45.71;100526.16;5056106;28;20051;-64
2022/03/09 04:33:34;;;;;;;7.05;3.20;;;;;;;-9.64;45.82;100575.88;5073537;28;20040;-63
2022/03/09 04:35:59;;;;;;;9.05;3.78;;;;;;;-9.53;45.67;100574.28;5072683;28;20032;-65
2022/03/09 04:38:25;;;;;;;9.40;3.17;;;;;;;-9.13;44.41;100599.91;5073387;28;20021;-63
2022/03/09 04:40:50;;;;;;;8.60;3.55;;;;;;;-9.16;44.81;100598.97;5073090;28;20379;-64
2022/03/09 04:43:16;;;;;;;7.32;3.70;;;;;;;-9.35;44.40;100540.81;5055401;28;20085;-63
2022/03/09 04:45:41;;;;;;;7.97;3.88;;;;;;;-8.79;43.67;100604.63;5072082;28;20028;-64
2022/03/09 04:48:07;;;;;;;11.20;4.22;;;;;;;-8.92;43.72;100608.78;5054600;28;20032;-64
2022/03/09 04:50:32;;;;;;;9.48;3.88;;;;;;;-8.96;44.35;100601.81;5072606;28;20032;-66
2022/03/09 04:52:58;;;;;;;6.07;2.63;;;;;;;-8.84;44.23;100601.97;5038665;28;20033;-67
2022/03/09 04:55:24;;;;;;;7.43;3.25;;;;;;;-9.10;44.33;100552.34;5055022;28;20036;-66
2022/03/09 04:57:49;;;;;;;12.48;3.63;;;;;;;-8.67;44.01;100615.13;5055020;28;20064;-65
2022/03/09 05:00:15;;;;;;;5.70;2.22;;;;;;;-8.45;43.41;100607.53;5054871;28;20107;-63
2022/03/09 05:02:41;;;;;;;11.15;3.65;;;;;;;-8.32;43.00;100616.31;5054778;28;20573;-66
2022/03/09 05:05:07;;;;;;;9.10;3.75;;;;;;;-8.32;43.38;100621.50;5053876;28;20021;-67
2022/03/09 05:07:32;;;;;;;7.82;3.70;;;;;;;-8.19;43.21;100611.25;5053224;28;20036;-65
2022/03/09 05:09:58;;;;;;;9.48;4.00;;;;;;;-8.12;42.50;100564.50;5072594;28;20025;-65
2022/03/09 05:12:24;;;;;;;7.97;3.60;;;;;;;-7.54;41.77;100617.78;5071848;28;20381;-66
2022/03/09 05:14:49;;;;;;;16.75;3.88;;;;;;;-7.23;40.23;100594.53;5072199;28;20100;-66
2022/03/09 05:17:16;;;;;;;4.68;2.35;;;;;;;-7.00;39.77;100619.81;5054558;28;20032;-64
2022/03/09 05:19:41;;;;;;;8.95;3.92;;;;;;;-6.94;39.68;100599.00;5054390;28;20032;-67
2022/03/09 05:22:07;;;;;;;7.25;3.53;;;;;;;-5.97;38.51;100620.88;5072081;28;20036;-71
2022/03/09 05:24:32;;;;;;;4.22;2.40;;;;;;;-5.21;36.24;100583.38;5072876;28;20144;-63
2022/03/09 05:26:58;;;;;;;11.43;4.32;;;;;;;-4.72;34.44;100620.59;5072573;28;20024;-59
2022/03/09 05:29:23;;;;;;;9.27;4.20;;;;;;;-4.71;34.62;100617.97;5071835;28;20040;-69
2022/03/09 05:31:49;;;;;;;9.93;4.45;;;;;;;-4.71;35.50;100623.19;5072320;28;20040;-68
2022/03/09 05:34:14;;;;;;;11.63;5.22;;;;;;;-4.74;34.43;100630.19;5072035;28;20358;-68
2022/03/09 05:36:41;;;;;;;11.18;3.97;;;;;;;-4.71;35.30;100627.56;5072155;28;20036;-64
2022/03/09 05:39:06;;;;;;;10.20;4.60;;;;;;;-4.76;35.42;100638.03;5072277;28;20461;-72
2022/03/09 05:41:33;;;;;;;12.75;5.13;;;;;;;-4.72;34.62;100637.13;5072594;28;20101;-67
2022/03/09 05:43:58;;;;;;;17.67;6.10;;;;;;;-4.79;35.16;100636.31;5072337;28;20056;-67
2022/03/09 05:46:24;;;;;;;8.13;3.35;;;;;;;-4.20;33.46;100640.38;5054066;28;20052;-69
2022/03/09 05:48:49;;;;;;;13.45;4.38;;;;;;;-3.72;32.66;100633.91;5054531;28;20024;-69
2022/03/09 05:51:15;;;;;;;14.68;5.38;;;;;;;-3.51;32.15;100646.78;5071912;28;20103;-66
2022/03/09 05:53:40;;;;;;;12.98;5.88;;;;;;;-2.95;32.24;100625.25;5036881;28;20396;-65
2022/03/09 05:56:06;;;;;;;12.85;6.20;;;;;;;-0.78;29.65;100625.28;5054267;28;20031;-66
2022/03/09 05:58:32;;;;;;;13.35;5.05;;;;;;;1.91;26.27;100626.22;5037257;28;20568;-65
2022/03/09 06:00:57;;;;;;;11.65;3.28;;;;;;;4.21;24.85;100607.34;5053250;28;20101;-63
2022/03/09 06:03:23;;;;;;;16.33;6.45;;;;;;;6.23;21.34;100635.47;5070585;28;20031;-62
2022/03/09 06:05:49;;;;;;;14.77;6.40;;;;;;;8.41;19.67;100649.56;5071873;28;20035;-62
2022/03/09 06:08:14;;;;;;;12.05;6.60;;;;;;;9.09;18.05;100641.19;5071863;28;20024;-63
2022/03/09 06:10:40;;;;;;;15.05;6.03;;;;;;;10.48;17.07;100616.25;5053386;28;20139;-64
2022/03/09 06:13:05;;;;;;;15.45;6.55;;;;;;;11.51;15.92;100640.53;5020155;28;20024;-63
2022/03/09 06:15:30;;;;;;;13.70;6.35;;;;;;;12.88;14.91;100648.31;5053874;28;20035;-61
2022/03/09 06:17:56;;;;;;;17.55;6.30;;;;;;;14.29;14.09;100641.63;5053485;28;20123;-62
2022/03/09 06:20:25;;;;;;;12.68;6.20;;;;;;;15.51;13.16;100643.03;5035437;28;20032;-63
2022/03/09 06:22:51;;;;;;;11.55;6.80;;;;;;;15.55;12.00;100616.59;5070725;28;20516;-66
2022/03/09 06:25:17;;;;;;;10.88;6.75;;;;;;;16.47;11.47;100637.13;5071397;28;20032;-63
2022/03/09 06:27:47;;;;;;;11.93;6.30;;;;;;;17.53;11.16;100638.03;5037064;28;20025;-63
2022/03/09 06:30:14;;;;;;;15.57;6.75;;;;;;;18.46;10.55;100638.94;5071384;28;20048;-63
2022/03/09 06:32:41;;;;;;;11.00;6.70;;;;;;;19.14;9.71;100631.16;5071088;28;20037;-64
2022/03/09 06:35:07;;;;;;;10.27;6.30;;;;;;;19.96;9.54;100641.56;5053351;28;20028;-63
2022/03/09 06:37:33;;;;;;;15.80;6.38;;;;;;;20.42;8.75;100648.44;5053821;28;20090;-63
2022/03/09 06:39:59;;;;;;;11.98;6.20;;;;;;;21.08;8.38;100643.84;5070794;28;20032;-64
2022/03/09 06:42:25;;;;;;;8.77;5.88;;;;;;;21.52;8.28;100642.53;5052600;28;20123;-64
2022/03/09 06:44:51;;;;;;;10.15;5.93;;;;;;;20.95;7.96;100651.69;5035825;28;20028;-67
2022/03/09 06:47:17;;;;;;;12.73;5.97;;;;;;;21.25;7.91;100664.75;5053553;28;20039;-63
2022/03/09 06:49:42;;;;;;;13.35;6.07;;;;;;;21.46;7.72;100653.25;5052903;28;20393;-65
2022/03/09 06:52:08;;;;;;;11.10;6.25;;;;;;;21.74;7.29;100653.72;5035894;28;20029;-64
2022/03/09 06:54:34;;;;;;;10.95;6.32;;;;;;;22.06;7.24;100618.28;5036067;28;20028;-65
2022/03/09 06:56:59;;;;;;;12.70;6.45;;;;;;;22.59;6.64;100648.47;5070660;28;20029;-66
2022/03/09 06:59:25;;;;;;;10.88;6.70;;;;;;;22.91;6.59;100616.44;5036093;28;20044;-65
2022/03/09 07:01:51;;;;;;;10.43;6.15;;;;;;;23.53;6.26;100656.44;5052783;28;20043;-65
2022/03/09 07:04:16;;;;;;;10.60;6.60;;;;;;;24.21;5.73;100651.63;5070588;28;20162;-65
2022/03/09 07:06:42;;;;;;;10.23;6.40;;;;;;;24.59;5.87;100634.09;5053168;28;20036;-64
2022/03/09 07:09:07;;;;;;;12.27;6.55;;;;;;;25.17;5.11;100643.19;5050950;28;20373;-64
2022/03/09 07:11:33;;;;;;;8.73;6.07;;;;;;;25.33;5.22;100642.91;5050525;28;20906;-68
2022/03/09 07:13:59;;;;;;;10.55;6.38;;;;;;;25.48;5.08;100636.44;5049914;28;20040;-65
2022/03/09 07:16:24;;;;;;;9.05;6.20;;;;;;;25.80;4.94;100634.06;5050601;28;20036;-65
2022/03/09 07:18:50;;;;;;;11.52;7.20;;;;;;;26.14;4.81;100637.75;5068691;28;20032;-65
2022/03/09 07:21:15;;;;;;;8.45;6.15;;;;;;;26.40;4.60;100630.66;5060522;28;20148;-65
2022/03/09 07:23:41;;;;;;;9.25;6.55;;;;;;;26.99;4.61;100641.88;5068012;28;20078;-65
2022/03/09 07:26:07;;;;;;;8.82;6.25;;;;;;;26.73;4.50;100632.56;5067811;28;20025;-67
2022/03/09 07:28:33;;;;;;;9.32;7.05;;;;;;;26.60;4.21;100629.84;5052435;28;20395;-66
2022/03/09 07:30:58;;;;;;;10.45;7.75;;;;;;;25.55;4.34;100633.75;5052336;28;20178;-67
2022/03/09 07:33:24;;;;;;;12.60;8.55;;;;;;;24.16;4.86;100631.34;5070555;28;20062;-67
2022/03/09 07:35:50;;;;;;;12.45;7.45;;;;;;;24.42;4.82;100647.19;5053208;28;20500;-65
2022/03/09 07:38:16;;;;;;;10.30;6.55;;;;;;;24.34;4.94;100618.06;5068731;28;20051;-66
2022/03/09 07:40:42;;;;;;;8.60;6.55;;;;;;;24.46;4.97;100614.78;5055788;28;20032;-66
2022/03/09 07:43:08;;;;;;;13.80;6.63;;;;;;;23.93;5.18;100626.84;5053208;28;20060;-63
2022/03/09 07:45:34;;;;;;;9.93;6.22;;;;;;;23.69;5.11;100644.44;5070505;28;20094;-65
2022/03/09 07:47:59;;;;;;;8.73;6.20;;;;;;;23.30;5.11;100611.78;5069679;28;20036;-67
2022/03/09 07:50:25;;;;;;;9.63;5.75;;;;;;;22.91;4.69;100646.47;5069384;28;20017;-65
2022/03/09 07:52:51;;;;;;;8.70;5.43;;;;;;;21.14;5.61;100661.38;5036070;28;20493;-65
2022/03/09 07:55:17;;;;;;;10.55;5.55;;;;;;;20.50;5.69;100643.88;5034618;28;20478;-67
2022/03/09 07:57:42;;;;;;;11.48;5.55;;;;;;;19.81;5.75;100644.03;5085659;28;20045;-65
2022/03/09 08:00:08;;;;;;;7.97;5.85;;;;;;;17.16;7.06;100657.84;5069148;28;20044;-68
2022/03/09 08:02:34;;;;;;;10.75;6.25;;;;;;;13.94;8.57;100661.56;5067766;28;20032;-64
2022/03/09 08:04:59;;;;;;;11.65;5.32;;;;;;;11.01;10.48;100638.63;5069048;28;20772;-63
2022/03/09 08:07:25;;;;;;;11.30;6.10;;;;;;;8.08;12.77;100663.91;5031882;28;20123;-67
2022/03/09 08:09:50;;;;;;;9.05;5.53;;;;;;;6.04;14.78;100665.63;5047715;28;20296;-59
2022/03/09 08:12:16;;;;;;;10.20;4.18;;;;;;;4.30;14.84;100649.34;5069686;28;20029;-66
2022/03/09 08:14:41;;;;;;;5.50;3.95;;;;;;;3.05;16.17;100695.59;5070020;28;20040;-65
2022/03/09 08:17:07;;;;;;;6.80;3.72;;;;;;;1.32;17.73;100667.56;5070170;28;20036;-67
2022/03/09 08:19:33;;;;;;;7.68;4.00;;;;;;;0.62;18.75;100680.00;5069307;28;20075;-70
2022/03/09 08:21:59;;;;;;;7.40;4.20;;;;;;;0.04;20.31;100662.94;5070155;28;20047;-64
2022/03/09 08:24:27;;;;;;;9.15;4.57;;;;;;;-0.12;20.65;100672.09;5069763;28;20469;-64
2022/03/09 08:26:52;;;;;;;13.13;4.75;;;;;;;-1.22;21.87;100583.19;5069674;28;20031;-64
2022/03/09 08:29:18;;;;;;;10.13;4.22;;;;;;;-0.96;21.15;100676.47;5069761;28;20049;-65
2022/03/09 08:31:44;;;;;;;7.70;3.20;;;;;;;-0.86;20.74;100680.63;5070492;28;20037;-58
2022/03/09 08:34:09;;;;;;;10.10;3.42;;;;;;;-1.37;21.82;100682.44;5070528;28;20043;-66
2022/03/09 08:36:35;;;;;;;9.18;4.13;;;;;;;-1.71;22.31;100698.75;5068929;28;20029;-65
2022/03/09 08:39:01;;;;;;;8.52;4.00;;;;;;;-1.84;22.96;100698.06;5067257;28;20054;-63
2022/03/09 08:41:28;;;;;;;8.00;4.03;;;;;;;-1.73;22.73;100690.03;5068116;28;20098;-64
2022/03/09 08:43:54;;;;;;;7.20;3.97;;;;;;;-2.05;23.49;100673.00;5071996;28;20055;-57
2022/03/09 08:46:20;;;;;;;7.80;3.90;;;;;;;-1.92;22.73;100679.84;5072511;28;20478;-64
2022/03/09 08:48:46;;;;;;;7.18;3.78;;;;;;;-1.99;23.28;100670.28;5072725;28;20024;-66
2022/03/09 08:51:12;;;;;;;9.07;4.03;;;;;;;-1.80;23.00;100693.66;5073230;28;20067;-60
2022/03/09 08:53:37;;;;;;;5.38;3.08;;;;;;;-1.92;22.95;100652.69;5072822;28;20036;-66
2022/03/09 08:56:07;;;;;;;2.90;2.10;;;;;;;-1.55;22.10;100695.88;5072710;28;20077;-64
2022/03/09 08:58:34;;;;;;;6.30;2.78;;;;;;;-1.36;21.90;100685.91;5072699;28;20032;-64
2022/03/09 09:01:00;;;;;;;12.75;2.70;;;;;;;-1.66;22.65;100699.56;5072482;28;20473;-63
2022/03/09 09:03:25;;;;;;;6.20;2.78;;;;;;;-1.96;23.10;100700.88;5072041;28;20032;-63
2022/03/09 09:05:52;;;;;;;7.72;2.88;;;;;;;-2.10;23.72;100698.47;5037843;28;20032;-64
2022/03/09 09:08:18;;;;;;;5.78;3.00;;;;;;;-2.28;23.29;100668.13;5071524;28;20020;-63
2022/03/09 09:10:44;;;;;;;6.60;2.95;;;;;;;-2.12;23.25;100708.13;5053959;28;20111;-61
2022/03/09 09:13:10;;;;;;;6.72;3.20;;;;;;;-1.93;23.36;100711.34;5072324;28;20135;-63
2022/03/09 09:15:36;;;;;;;4.88;2.15;;;;;;;-1.83;22.55;100718.16;5072361;28;20040;-65
2022/03/09 09:18:04;;;;;;;6.80;3.22;;;;;;;-2.43;23.81;100682.28;5070976;28;20024;-65
2022/03/09 09:20:30;;;;;;;4.60;2.70;;;;;;;-2.26;23.38;100713.56;5071126;28;20045;-66
2022/03/09 09:22:57;;;;;;;6.93;2.88;;;;;;;-2.52;24.30;100697.25;5054615;28;20059;-65
2022/03/09 09:25:24;;;;;;;8.48;3.40;;;;;;;-2.22;23.28;100710.00;5054352;28;20500;-67
2022/03/09 09:27:51;;;;;;;6.38;2.25;;;;;;;-2.21;23.54;100717.81;5071940;28;20044;-63
2022/03/09 09:30:17;;;;;;;8.18;3.45;;;;;;;-2.53;24.43;100726.09;5073186;28;20052;-65
2022/03/09 09:32:43;;;;;;;6.72;3.08;;;;;;;-2.58;23.60;100728.78;5072956;28;20401;-59
2022/03/09 09:35:10;;;;;;;5.32;3.00;;;;;;;-2.96;24.68;100724.84;5054444;28;20037;-65
2022/03/09 09:37:37;;;;;;;5.70;3.00;;;;;;;-2.99;25.26;100737.97;5072993;28;20369;-64
2022/03/09 09:40:03;;;;;;;5.63;2.70;;;;;;;-2.96;24.21;100741.44;5072323;28;20025;-65
2022/03/09 09:42:30;;;;;;;6.10;2.53;;;;;;;-2.78;23.78;100734.25;5054539;28;20028;-65
2022/03/09 09:44:58;;;;;;;5.65;2.80;;;;;;;-3.20;25.05;100734.66;5072412;28;20055;-65
2022/03/09 09:47:24;;;;;;;5.90;2.97;;;;;;;-3.10;25.02;100745.94;5038125;28;20034;-63
2022/03/09 09:49:52;;;;;;;6.63;2.63;;;;;;;-2.96;24.01;100745.78;5072410;28;20442;-66
2022/03/09 09:52:19;;;;;;;6.28;2.65;;;;;;;-2.70;24.04;100736.78;5054204;28;20025;-62
2022/03/09 09:54:48;;;;;;;3.78;1.80;;;;;;;-2.85;23.88;100737.81;5071475;28;20025;-58
2022/03/09 09:57:14;;;;;;;7.97;3.00;;;;;;;-3.09;24.74;100732.81;5072541;28;20058;-64
2022/03/09 09:59:40;;;;;;;8.18;3.08;;;;;;;-3.14;25.24;100726.75;5054829;28;20041;-65
2022/03/09 10:02:07;;;;;;;5.40;2.92;;;;;;;-3.17;24.46;100729.38;5054291;28;20035;-64
2022/03/09 10:04:33;;;;;;;5.80;2.75;;;;;;;-3.29;25.56;100729.53;5071923;28;20043;-64
2022/03/09 10:06:58;;;;;;;5.70;3.22;;;;;;;-3.13;25.40;100723.25;5054492;28;20450;-65
2022/03/09 10:09:34;;;;;;;4.20;2.30;;;;;;;-2.95;24.70;100722.22;5072150;28;20028;-64
2022/03/09 10:12:00;;;;;;;7.85;3.20;;;;;;;-2.92;25.13;100739.63;5053841;28;20032;-66
2022/03/09 10:14:46;;;;;;;13.60;3.60;;;;;;;-2.82;24.95;100743.03;5071575;28;20382;-64
2022/03/09 10:17:23;;;;;;;5.40;2.72;;;;;;;-2.81;25.21;100735.16;5071630;28;20038;-63
2022/03/09 10:19:51;;;;;;;5.13;2.83;;;;;;;-2.65;25.09;100746.34;5053653;28;20051;-63
2022/03/09 10:22:35;;;;;;;5.30;2.72;;;;;;;-2.59;25.08;100753.28;5071112;28;20025;-65
2022/03/09 10:25:17;;;;;;;4.60;2.45;;;;;;;-2.61;25.03;100741.94;5061420;28;20028;-59
2022/03/09 10:27:54;;;;;;;5.15;2.40;;;;;;;-2.63;25.21;100738.47;5052459;28;20059;-66
2022/03/09 10:30:22;;;;;;;6.55;2.40;;;;;;;-2.76;25.33;100741.22;5043768;28;20110;-64
2022/03/09 10:33:04;;;;;;;4.30;2.53;;;;;;;-2.62;25.35;100750.69;5069896;28;20036;-62
2022/03/09 10:35:29;;;;;;;7.22;2.88;;;;;;;-2.63;24.98;100756.81;5069559;28;20075;-64
2022/03/09 10:37:57;;;;;;;6.00;1.60;;;;;;;-2.35;23.57;100751.25;5069205;28;20106;-62
2022/03/09 10:40:23;;;;;;;4.20;2.33;;;;;;;-3.01;24.13;100714.41;5069590;28;20117;-56
2022/03/09 10:42:51;;;;;;;4.88;2.45;;;;;;;-2.93;25.44;100761.47;5070555;28;20029;-65
2022/03/09 10:45:17;;;;;;;5.57;2.58;;;;;;;-2.92;25.62;100769.34;5070707;28;20526;-63
2022/03/09 10:47:46;;;;;;;5.45;2.50;;;;;;;-2.79;25.30;100766.59;5070927;28;20048;-63
2022/03/09 10:50:22;;;;;;;6.00;2.70;;;;;;;-2.60;25.49;100765.50;5070528;28;20048;-64
2022/03/09 10:52:55;;;;;;;6.55;2.97;;;;;;;-2.47;24.97;100762.75;5035859;28;20074;-60
2022/03/09 10:55:31;;;;;;;5.05;2.67;;;;;;;-2.43;24.74;100763.56;5051977;28;20040;-59
2022/03/09 10:58:19;;;;;;;4.25;2.60;;;;;;;-2.45;25.02;100755.75;5070858;28;20044;-65
2022/03/09 11:00:46;;;;;;;5.35;2.75;;;;;;;-2.31;24.54;100758.19;5036069;28;20089;-61
2022/03/09 11:03:24;;;;;;;6.60;3.00;;;;;;;-2.47;25.46;100766.25;5051367;28;20044;-63
2022/03/09 11:05:57;;;;;;;6.38;2.78;;;;;;;-2.65;25.67;100764.69;5030665;28;20029;-60
2022/03/09 11:08:28;;;;;;;7.40;2.10;;;;;;;-2.96;25.68;100716.97;5050116;28;20058;-62
2022/03/09 11:10:55;;;;;;;6.03;2.40;;;;;;;-2.75;25.52;100768.31;5038534;28;20021;-62
2022/03/09 11:13:22;;;;;;;4.57;2.35;;;;;;;-2.74;25.95;100767.44;5051704;28;20035;-61
2022/03/09 11:15:48;;;;;;;5.25;2.58;;;;;;;-2.51;25.20;100767.16;5052305;28;20538;-64
2022/03/09 11:18:22;;;;;;;3.67;2.15;;;;;;;-2.61;24.97;100763.78;5052963;28;20040;-61
2022/03/09 11:20:50;;;;;;;5.70;2.78;;;;;;;-2.67;25.62;100768.22;5051964;28;20029;-57
2022/03/09 11:23:17;;;;;;;3.75;2.35;;;;;;;-2.69;24.71;100757.75;5070292;28;20033;-62